sensor_id;sensor_type;location;lat;lon;timestamp;P1;durP1;ratioP1;P2;durP2;ratioP2
24030;SDS011;12240;51.142;22.486;2022-12-24T00:01:35;27.75;;;13.00;;
24030;SDS011;12240;51.142;22.486;2022-12-24T00:04:04;27.77;;;13.32;;
24030;SDS011;12240;51.142;22.486;2022-12-24T00:06:33;30.48;;;13.98;;
24030;SDS011;12240;51.142;22.486;2022-12-24T00:09:02;28.45;;;14.30;;
24030;SDS011;12240;51.142;22.486;2022-12-24T00:11:31;31.88;;;13.65;;
24030;SDS011;12240;51.142;22.486;2022-12-24T00:14:00;27.08;;;13.10;;
24030;SDS011;12240;51.142;22.486;2022-12-24T00:16:29;27.15;;;13.18;;
24030;SDS011;12240;51.142;22.486;2022-12-24T00:18:58;33.78;;;13.95;;
24030;SDS011;12240;51.142;22.486;2022-12-24T00:21:27;33.22;;;14.30;;
24030;SDS011;12240;51.142;22.486;2022-12-24T00:23:55;29.13;;;13.10;;
24030;SDS011;12240;51.142;22.486;2022-12-24T00:26:24;28.83;;;13.30;;
24030;SDS011;12240;51.142;22.486;2022-12-24T00:28:53;33.20;;;14.52;;
24030;SDS011;12240;51.142;22.486;2022-12-24T00:31:22;35.70;;;14.00;;
24030;SDS011;12240;51.142;22.486;2022-12-24T00:33:51;29.88;;;13.38;;
24030;SDS011;12240;51.142;22.486;2022-12-24T00:36:20;26.63;;;13.30;;
24030;SDS011;12240;51.142;22.486;2022-12-24T00:38:48;28.33;;;13.15;;
24030;SDS011;12240;51.142;22.486;2022-12-24T00:41:17;28.50;;;12.38;;
24030;SDS011;12240;51.142;22.486;2022-12-24T00:44:02;28.35;;;13.07;;
24030;SDS011;12240;51.142;22.486;2022-12-24T00:46:37;24.48;;;11.75;;
24030;SDS011;12240;51.142;22.486;2022-12-24T00:49:08;25.83;;;12.65;;
24030;SDS011;12240;51.142;22.486;2022-12-24T00:51:38;28.40;;;12.70;;
24030;SDS011;12240;51.142;22.486;2022-12-24T00:54:07;30.48;;;13.88;;
24030;SDS011;12240;51.142;22.486;2022-12-24T00:56:37;27.58;;;13.18;;
24030;SDS011;12240;51.142;22.486;2022-12-24T00:59:07;25.80;;;13.45;;
24030;SDS011;12240;51.142;22.486;2022-12-24T01:01:39;25.00;;;13.18;;
24030;SDS011;12240;51.142;22.486;2022-12-24T01:04:09;27.25;;;13.35;;
24030;SDS011;12240;51.142;22.486;2022-12-24T01:06:57;25.67;;;13.80;;
24030;SDS011;12240;51.142;22.486;2022-12-24T01:09:27;30.58;;;15.20;;
24030;SDS011;12240;51.142;22.486;2022-12-24T01:11:56;29.25;;;13.80;;
24030;SDS011;12240;51.142;22.486;2022-12-24T01:14:25;23.58;;;12.25;;
24030;SDS011;12240;51.142;22.486;2022-12-24T01:16:53;22.42;;;12.25;;
24030;SDS011;12240;51.142;22.486;2022-12-24T01:19:22;24.90;;;12.48;;
24030;SDS011;12240;51.142;22.486;2022-12-24T01:21:51;25.00;;;12.68;;
24030;SDS011;12240;51.142;22.486;2022-12-24T01:24:20;28.02;;;13.13;;
24030;SDS011;12240;51.142;22.486;2022-12-24T01:26:49;29.65;;;14.73;;
24030;SDS011;12240;51.142;22.486;2022-12-24T01:29:18;27.35;;;13.52;;
24030;SDS011;12240;51.142;22.486;2022-12-24T01:31:47;26.38;;;13.30;;
24030;SDS011;12240;51.142;22.486;2022-12-24T01:34:15;28.67;;;12.50;;
24030;SDS011;12240;51.142;22.486;2022-12-24T01:36:44;28.50;;;12.88;;
24030;SDS011;12240;51.142;22.486;2022-12-24T01:39:13;28.60;;;12.57;;
24030;SDS011;12240;51.142;22.486;2022-12-24T01:41:42;23.50;;;11.98;;
24030;SDS011;12240;51.142;22.486;2022-12-24T01:44:31;29.17;;;13.50;;
24030;SDS011;12240;51.142;22.486;2022-12-24T01:49:52;24.63;;;11.90;;
24030;SDS011;12240;51.142;22.486;2022-12-24T01:52:32;27.23;;;11.70;;
24030;SDS011;12240;51.142;22.486;2022-12-24T01:55:04;30.27;;;13.10;;
24030;SDS011;12240;51.142;22.486;2022-12-24T01:57:58;23.98;;;12.40;;
24030;SDS011;12240;51.142;22.486;2022-12-24T02:00:30;28.80;;;12.40;;
24030;SDS011;12240;51.142;22.486;2022-12-24T02:02:58;30.83;;;12.43;;
24030;SDS011;12240;51.142;22.486;2022-12-24T02:05:28;31.38;;;12.82;;
24030;SDS011;12240;51.142;22.486;2022-12-24T02:08:20;29.10;;;13.23;;
24030;SDS011;12240;51.142;22.486;2022-12-24T02:10:49;26.90;;;12.60;;
24030;SDS011;12240;51.142;22.486;2022-12-24T02:13:18;27.73;;;13.15;;
24030;SDS011;12240;51.142;22.486;2022-12-24T02:15:51;27.33;;;13.13;;
24030;SDS011;12240;51.142;22.486;2022-12-24T02:22:01;24.85;;;12.40;;
24030;SDS011;12240;51.142;22.486;2022-12-24T02:25:03;25.92;;;12.73;;
24030;SDS011;12240;51.142;22.486;2022-12-24T02:31:04;30.00;;;13.93;;
24030;SDS011;12240;51.142;22.486;2022-12-24T02:36:48;30.52;;;13.32;;
24030;SDS011;12240;51.142;22.486;2022-12-24T02:42:22;30.52;;;14.23;;
24030;SDS011;12240;51.142;22.486;2022-12-24T02:45:02;29.52;;;13.00;;
24030;SDS011;12240;51.142;22.486;2022-12-24T02:47:37;24.38;;;12.25;;
24030;SDS011;12240;51.142;22.486;2022-12-24T02:50:09;26.27;;;13.30;;
24030;SDS011;12240;51.142;22.486;2022-12-24T02:52:44;29.35;;;13.20;;
24030;SDS011;12240;51.142;22.486;2022-12-24T03:07:19;28.98;;;12.75;;
24030;SDS011;12240;51.142;22.486;2022-12-24T03:09:52;26.42;;;12.18;;
24030;SDS011;12240;51.142;22.486;2022-12-24T03:12:26;30.90;;;13.98;;
24030;SDS011;12240;51.142;22.486;2022-12-24T03:15:04;29.10;;;13.95;;
24030;SDS011;12240;51.142;22.486;2022-12-24T03:17:38;24.73;;;11.88;;
24030;SDS011;12240;51.142;22.486;2022-12-24T03:22:41;27.40;;;11.52;;
24030;SDS011;12240;51.142;22.486;2022-12-24T03:25:09;28.98;;;13.60;;
24030;SDS011;12240;51.142;22.486;2022-12-24T03:27:37;27.70;;;12.52;;
24030;SDS011;12240;51.142;22.486;2022-12-24T03:30:09;29.65;;;12.80;;
24030;SDS011;12240;51.142;22.486;2022-12-24T03:32:39;26.98;;;12.80;;
24030;SDS011;12240;51.142;22.486;2022-12-24T03:35:09;32.25;;;13.82;;
24030;SDS011;12240;51.142;22.486;2022-12-24T03:37:38;31.17;;;14.25;;
24030;SDS011;12240;51.142;22.486;2022-12-24T03:40:06;27.50;;;13.80;;
24030;SDS011;12240;51.142;22.486;2022-12-24T03:42:36;28.85;;;12.88;;
24030;SDS011;12240;51.142;22.486;2022-12-24T03:45:04;28.42;;;14.07;;
24030;SDS011;12240;51.142;22.486;2022-12-24T03:47:33;27.08;;;12.27;;
24030;SDS011;12240;51.142;22.486;2022-12-24T03:50:01;27.65;;;12.18;;
24030;SDS011;12240;51.142;22.486;2022-12-24T03:52:29;30.75;;;13.75;;
24030;SDS011;12240;51.142;22.486;2022-12-24T03:54:57;29.15;;;13.32;;
24030;SDS011;12240;51.142;22.486;2022-12-24T03:57:26;26.65;;;12.73;;
24030;SDS011;12240;51.142;22.486;2022-12-24T03:59:54;27.33;;;12.85;;
24030;SDS011;12240;51.142;22.486;2022-12-24T04:02:22;29.17;;;12.48;;
24030;SDS011;12240;51.142;22.486;2022-12-24T04:04:51;26.17;;;12.93;;
24030;SDS011;12240;51.142;22.486;2022-12-24T04:07:20;28.52;;;12.35;;
24030;SDS011;12240;51.142;22.486;2022-12-24T04:09:48;25.65;;;12.60;;
24030;SDS011;12240;51.142;22.486;2022-12-24T04:12:16;24.95;;;11.93;;
24030;SDS011;12240;51.142;22.486;2022-12-24T04:14:44;27.17;;;12.95;;
24030;SDS011;12240;51.142;22.486;2022-12-24T04:17:12;24.88;;;11.65;;
24030;SDS011;12240;51.142;22.486;2022-12-24T04:19:41;24.30;;;11.98;;
24030;SDS011;12240;51.142;22.486;2022-12-24T04:22:09;27.00;;;12.70;;
24030;SDS011;12240;51.142;22.486;2022-12-24T04:24:37;22.60;;;11.35;;
24030;SDS011;12240;51.142;22.486;2022-12-24T04:27:06;29.70;;;12.10;;
24030;SDS011;12240;51.142;22.486;2022-12-24T04:29:36;23.73;;;11.93;;
24030;SDS011;12240;51.142;22.486;2022-12-24T04:32:04;25.40;;;11.75;;
24030;SDS011;12240;51.142;22.486;2022-12-24T04:34:33;26.48;;;12.43;;
24030;SDS011;12240;51.142;22.486;2022-12-24T04:37:01;28.65;;;13.02;;
24030;SDS011;12240;51.142;22.486;2022-12-24T04:39:29;28.33;;;12.55;;
24030;SDS011;12240;51.142;22.486;2022-12-24T04:41:58;29.08;;;13.50;;
24030;SDS011;12240;51.142;22.486;2022-12-24T04:44:26;30.95;;;12.65;;
24030;SDS011;12240;51.142;22.486;2022-12-24T04:46:54;22.80;;;12.77;;
24030;SDS011;12240;51.142;22.486;2022-12-24T04:49:22;27.02;;;13.23;;
24030;SDS011;12240;51.142;22.486;2022-12-24T04:51:51;28.52;;;13.80;;
24030;SDS011;12240;51.142;22.486;2022-12-24T04:54:19;31.08;;;13.27;;
24030;SDS011;12240;51.142;22.486;2022-12-24T04:56:48;29.05;;;13.23;;
24030;SDS011;12240;51.142;22.486;2022-12-24T04:59:16;21.95;;;11.07;;
24030;SDS011;12240;51.142;22.486;2022-12-24T05:01:44;23.63;;;11.93;;
24030;SDS011;12240;51.142;22.486;2022-12-24T05:04:13;26.65;;;12.75;;
24030;SDS011;12240;51.142;22.486;2022-12-24T05:06:41;28.30;;;12.95;;
24030;SDS011;12240;51.142;22.486;2022-12-24T05:09:09;24.20;;;12.13;;
24030;SDS011;12240;51.142;22.486;2022-12-24T05:11:38;23.60;;;11.40;;
24030;SDS011;12240;51.142;22.486;2022-12-24T05:14:05;26.90;;;12.85;;
24030;SDS011;12240;51.142;22.486;2022-12-24T05:16:41;27.38;;;12.95;;
24030;SDS011;12240;51.142;22.486;2022-12-24T05:19:10;28.35;;;13.48;;
24030;SDS011;12240;51.142;22.486;2022-12-24T05:21:40;26.30;;;13.30;;
24030;SDS011;12240;51.142;22.486;2022-12-24T05:24:11;27.90;;;13.05;;
24030;SDS011;12240;51.142;22.486;2022-12-24T05:26:58;30.17;;;13.32;;
24030;SDS011;12240;51.142;22.486;2022-12-24T05:29:26;26.98;;;13.10;;
24030;SDS011;12240;51.142;22.486;2022-12-24T05:31:55;23.67;;;11.93;;
24030;SDS011;12240;51.142;22.486;2022-12-24T05:34:23;25.48;;;12.82;;
24030;SDS011;12240;51.142;22.486;2022-12-24T05:36:51;28.75;;;12.60;;
24030;SDS011;12240;51.142;22.486;2022-12-24T05:39:20;26.98;;;12.27;;
24030;SDS011;12240;51.142;22.486;2022-12-24T05:41:48;22.92;;;11.70;;
24030;SDS011;12240;51.142;22.486;2022-12-24T05:44:16;31.40;;;13.10;;
24030;SDS011;12240;51.142;22.486;2022-12-24T05:46:45;23.98;;;12.15;;
24030;SDS011;12240;51.142;22.486;2022-12-24T05:49:13;25.92;;;12.40;;
24030;SDS011;12240;51.142;22.486;2022-12-24T05:51:42;27.83;;;12.25;;
24030;SDS011;12240;51.142;22.486;2022-12-24T05:54:10;25.35;;;12.20;;
24030;SDS011;12240;51.142;22.486;2022-12-24T05:56:38;26.17;;;11.35;;
24030;SDS011;12240;51.142;22.486;2022-12-24T05:59:06;23.88;;;11.65;;
24030;SDS011;12240;51.142;22.486;2022-12-24T06:01:35;23.35;;;11.35;;
24030;SDS011;12240;51.142;22.486;2022-12-24T06:04:04;22.23;;;11.82;;
24030;SDS011;12240;51.142;22.486;2022-12-24T06:06:33;22.55;;;11.55;;
24030;SDS011;12240;51.142;22.486;2022-12-24T06:09:01;24.45;;;12.32;;
24030;SDS011;12240;51.142;22.486;2022-12-24T06:11:30;21.50;;;10.73;;
24030;SDS011;12240;51.142;22.486;2022-12-24T06:14:00;21.95;;;10.68;;
24030;SDS011;12240;51.142;22.486;2022-12-24T06:16:29;22.77;;;11.32;;
24030;SDS011;12240;51.142;22.486;2022-12-24T06:18:57;20.85;;;10.55;;
24030;SDS011;12240;51.142;22.486;2022-12-24T06:21:25;22.95;;;10.75;;
24030;SDS011;12240;51.142;22.486;2022-12-24T06:23:54;22.42;;;10.77;;
24030;SDS011;12240;51.142;22.486;2022-12-24T06:26:22;21.08;;;11.10;;
24030;SDS011;12240;51.142;22.486;2022-12-24T06:28:51;21.52;;;10.57;;
24030;SDS011;12240;51.142;22.486;2022-12-24T06:31:20;22.17;;;10.73;;
24030;SDS011;12240;51.142;22.486;2022-12-24T06:33:50;18.38;;;9.93;;
24030;SDS011;12240;51.142;22.486;2022-12-24T06:36:21;24.27;;;12.20;;
24030;SDS011;12240;51.142;22.486;2022-12-24T06:38:51;24.83;;;12.52;;
24030;SDS011;12240;51.142;22.486;2022-12-24T06:41:21;29.10;;;13.70;;
24030;SDS011;12240;51.142;22.486;2022-12-24T06:43:50;33.90;;;17.13;;
24030;SDS011;12240;51.142;22.486;2022-12-24T06:46:20;33.72;;;17.42;;
24030;SDS011;12240;51.142;22.486;2022-12-24T06:48:49;46.38;;;24.42;;
24030;SDS011;12240;51.142;22.486;2022-12-24T06:51:18;32.63;;;16.63;;
24030;SDS011;12240;51.142;22.486;2022-12-24T06:53:48;29.52;;;13.98;;
24030;SDS011;12240;51.142;22.486;2022-12-24T06:56:19;24.77;;;11.95;;
24030;SDS011;12240;51.142;22.486;2022-12-24T06:58:48;23.50;;;11.52;;
24030;SDS011;12240;51.142;22.486;2022-12-24T07:01:18;23.67;;;11.45;;
24030;SDS011;12240;51.142;22.486;2022-12-24T07:03:47;21.50;;;11.73;;
24030;SDS011;12240;51.142;22.486;2022-12-24T07:06:26;19.70;;;10.63;;
24030;SDS011;12240;51.142;22.486;2022-12-24T07:08:56;19.17;;;10.18;;
24030;SDS011;12240;51.142;22.486;2022-12-24T07:11:25;22.88;;;11.68;;
24030;SDS011;12240;51.142;22.486;2022-12-24T07:13:54;19.15;;;11.20;;
24030;SDS011;12240;51.142;22.486;2022-12-24T07:16:22;20.70;;;10.95;;
24030;SDS011;12240;51.142;22.486;2022-12-24T07:18:51;21.75;;;11.52;;
24030;SDS011;12240;51.142;22.486;2022-12-24T07:21:19;20.67;;;10.82;;
24030;SDS011;12240;51.142;22.486;2022-12-24T07:23:48;24.17;;;11.50;;
24030;SDS011;12240;51.142;22.486;2022-12-24T07:26:16;23.48;;;11.35;;
24030;SDS011;12240;51.142;22.486;2022-12-24T07:28:44;25.50;;;12.18;;
24030;SDS011;12240;51.142;22.486;2022-12-24T07:31:13;26.25;;;13.93;;
24030;SDS011;12240;51.142;22.486;2022-12-24T07:33:41;25.65;;;12.45;;
24030;SDS011;12240;51.142;22.486;2022-12-24T07:36:12;22.40;;;10.77;;
24030;SDS011;12240;51.142;22.486;2022-12-24T07:38:47;23.55;;;10.55;;
24030;SDS011;12240;51.142;22.486;2022-12-24T07:41:17;20.38;;;9.90;;
24030;SDS011;12240;51.142;22.486;2022-12-24T07:43:47;19.77;;;9.80;;
24030;SDS011;12240;51.142;22.486;2022-12-24T07:46:16;18.50;;;9.02;;
24030;SDS011;12240;51.142;22.486;2022-12-24T07:48:45;19.23;;;9.20;;
24030;SDS011;12240;51.142;22.486;2022-12-24T07:51:14;18.88;;;8.75;;
24030;SDS011;12240;51.142;22.486;2022-12-24T07:53:43;17.92;;;9.23;;
24030;SDS011;12240;51.142;22.486;2022-12-24T07:56:14;18.48;;;9.23;;
24030;SDS011;12240;51.142;22.486;2022-12-24T07:58:43;20.00;;;9.73;;
24030;SDS011;12240;51.142;22.486;2022-12-24T08:01:12;18.85;;;8.95;;
24030;SDS011;12240;51.142;22.486;2022-12-24T08:03:40;20.58;;;9.77;;
24030;SDS011;12240;51.142;22.486;2022-12-24T08:06:09;17.08;;;9.13;;
24030;SDS011;12240;51.142;22.486;2022-12-24T08:08:38;21.65;;;10.95;;
24030;SDS011;12240;51.142;22.486;2022-12-24T08:11:06;23.90;;;11.88;;
24030;SDS011;12240;51.142;22.486;2022-12-24T08:13:35;19.33;;;10.30;;
24030;SDS011;12240;51.142;22.486;2022-12-24T08:16:03;24.48;;;10.95;;
24030;SDS011;12240;51.142;22.486;2022-12-24T08:18:33;24.10;;;11.18;;
24030;SDS011;12240;51.142;22.486;2022-12-24T08:21:01;20.77;;;10.57;;
24030;SDS011;12240;51.142;22.486;2022-12-24T08:23:33;19.73;;;10.70;;
24030;SDS011;12240;51.142;22.486;2022-12-24T08:28:34;22.17;;;10.80;;
24030;SDS011;12240;51.142;22.486;2022-12-24T08:31:04;18.55;;;9.25;;
24030;SDS011;12240;51.142;22.486;2022-12-24T08:33:33;16.13;;;8.45;;
24030;SDS011;12240;51.142;22.486;2022-12-24T08:36:02;19.30;;;8.82;;
24030;SDS011;12240;51.142;22.486;2022-12-24T08:38:32;17.10;;;8.57;;
24030;SDS011;12240;51.142;22.486;2022-12-24T08:41:01;17.73;;;9.05;;
24030;SDS011;12240;51.142;22.486;2022-12-24T08:43:29;19.27;;;9.32;;
24030;SDS011;12240;51.142;22.486;2022-12-24T08:46:02;20.95;;;10.10;;
24030;SDS011;12240;51.142;22.486;2022-12-24T08:48:32;19.02;;;9.48;;
24030;SDS011;12240;51.142;22.486;2022-12-24T08:51:05;17.67;;;9.13;;
24030;SDS011;12240;51.142;22.486;2022-12-24T08:53:37;19.77;;;9.27;;
24030;SDS011;12240;51.142;22.486;2022-12-24T08:56:07;18.52;;;10.20;;
24030;SDS011;12240;51.142;22.486;2022-12-24T08:58:37;20.42;;;10.13;;
24030;SDS011;12240;51.142;22.486;2022-12-24T09:01:12;19.15;;;9.35;;
24030;SDS011;12240;51.142;22.486;2022-12-24T09:03:44;19.27;;;9.60;;
24030;SDS011;12240;51.142;22.486;2022-12-24T09:06:13;20.73;;;9.40;;
24030;SDS011;12240;51.142;22.486;2022-12-24T09:08:43;16.10;;;9.13;;
24030;SDS011;12240;51.142;22.486;2022-12-24T09:11:13;18.63;;;9.60;;
24030;SDS011;12240;51.142;22.486;2022-12-24T09:13:44;18.27;;;8.50;;
24030;SDS011;12240;51.142;22.486;2022-12-24T09:16:13;15.38;;;9.15;;
24030;SDS011;12240;51.142;22.486;2022-12-24T09:18:41;17.48;;;9.13;;
24030;SDS011;12240;51.142;22.486;2022-12-24T09:21:11;17.30;;;8.73;;
24030;SDS011;12240;51.142;22.486;2022-12-24T09:23:43;16.50;;;8.73;;
24030;SDS011;12240;51.142;22.486;2022-12-24T09:26:14;16.15;;;9.00;;
24030;SDS011;12240;51.142;22.486;2022-12-24T09:28:48;15.07;;;8.15;;
24030;SDS011;12240;51.142;22.486;2022-12-24T09:31:18;20.17;;;10.55;;
24030;SDS011;12240;51.142;22.486;2022-12-24T09:33:48;17.48;;;10.05;;
24030;SDS011;12240;51.142;22.486;2022-12-24T09:36:18;18.95;;;10.18;;
24030;SDS011;12240;51.142;22.486;2022-12-24T09:38:48;17.08;;;9.52;;
24030;SDS011;12240;51.142;22.486;2022-12-24T09:44:47;16.95;;;9.20;;
24030;SDS011;12240;51.142;22.486;2022-12-24T09:47:40;21.30;;;9.45;;
24030;SDS011;12240;51.142;22.486;2022-12-24T09:50:20;16.63;;;9.30;;
24030;SDS011;12240;51.142;22.486;2022-12-24T09:53:05;15.43;;;8.65;;
24030;SDS011;12240;51.142;22.486;2022-12-24T09:55:49;15.88;;;8.80;;
24030;SDS011;12240;51.142;22.486;2022-12-24T09:58:45;17.35;;;8.77;;
24030;SDS011;12240;51.142;22.486;2022-12-24T10:01:16;20.48;;;11.07;;
24030;SDS011;12240;51.142;22.486;2022-12-24T10:03:46;19.90;;;10.33;;
24030;SDS011;12240;51.142;22.486;2022-12-24T10:06:15;15.40;;;9.00;;
24030;SDS011;12240;51.142;22.486;2022-12-24T10:09:01;19.98;;;10.60;;
24030;SDS011;12240;51.142;22.486;2022-12-24T10:11:41;16.80;;;8.98;;
24030;SDS011;12240;51.142;22.486;2022-12-24T10:14:47;17.48;;;8.77;;
24030;SDS011;12240;51.142;22.486;2022-12-24T10:20:25;13.50;;;8.00;;
24030;SDS011;12240;51.142;22.486;2022-12-24T10:23:51;16.30;;;8.05;;
24030;SDS011;12240;51.142;22.486;2022-12-24T10:26:32;16.23;;;8.35;;
24030;SDS011;12240;51.142;22.486;2022-12-24T10:29:16;15.50;;;8.40;;
24030;SDS011;12240;51.142;22.486;2022-12-24T10:31:52;19.48;;;9.63;;
24030;SDS011;12240;51.142;22.486;2022-12-24T10:34:37;25.58;;;12.35;;
24030;SDS011;12240;51.142;22.486;2022-12-24T10:37:18;23.02;;;12.20;;
24030;SDS011;12240;51.142;22.486;2022-12-24T10:39:51;18.30;;;9.65;;
24030;SDS011;12240;51.142;22.486;2022-12-24T10:42:20;19.13;;;9.13;;
24030;SDS011;12240;51.142;22.486;2022-12-24T10:45:02;17.48;;;8.43;;
24030;SDS011;12240;51.142;22.486;2022-12-24T10:47:36;19.55;;;8.73;;
24030;SDS011;12240;51.142;22.486;2022-12-24T10:53:37;15.82;;;7.88;;
24030;SDS011;12240;51.142;22.486;2022-12-24T10:56:20;17.55;;;8.73;;
24030;SDS011;12240;51.142;22.486;2022-12-24T10:58:53;18.52;;;9.18;;
24030;SDS011;12240;51.142;22.486;2022-12-24T11:01:43;21.60;;;9.60;;
24030;SDS011;12240;51.142;22.486;2022-12-24T11:04:18;16.80;;;9.10;;
24030;SDS011;12240;51.142;22.486;2022-12-24T11:06:53;23.50;;;10.27;;
24030;SDS011;12240;51.142;22.486;2022-12-24T11:09:31;22.25;;;10.35;;
24030;SDS011;12240;51.142;22.486;2022-12-24T11:12:03;22.83;;;10.07;;
24030;SDS011;12240;51.142;22.486;2022-12-24T11:14:48;22.85;;;9.57;;
24030;SDS011;12240;51.142;22.486;2022-12-24T11:17:53;15.90;;;7.72;;
24030;SDS011;12240;51.142;22.486;2022-12-24T11:20:33;17.55;;;8.60;;
24030;SDS011;12240;51.142;22.486;2022-12-24T11:23:01;20.90;;;10.00;;
24030;SDS011;12240;51.142;22.486;2022-12-24T11:25:30;39.13;;;12.73;;
24030;SDS011;12240;51.142;22.486;2022-12-24T11:28:24;22.27;;;10.60;;
24030;SDS011;12240;51.142;22.486;2022-12-24T11:30:58;23.95;;;10.30;;
24030;SDS011;12240;51.142;22.486;2022-12-24T11:33:30;33.42;;;12.68;;
24030;SDS011;12240;51.142;22.486;2022-12-24T11:38:41;52.95;;;17.10;;
24030;SDS011;12240;51.142;22.486;2022-12-24T11:41:18;93.55;;;25.27;;
24030;SDS011;12240;51.142;22.486;2022-12-24T11:43:47;71.13;;;20.83;;
24030;SDS011;12240;51.142;22.486;2022-12-24T11:46:34;39.60;;;13.40;;
24030;SDS011;12240;51.142;22.486;2022-12-24T11:49:23;38.28;;;13.85;;
24030;SDS011;12240;51.142;22.486;2022-12-24T11:54:42;27.90;;;11.95;;
24030;SDS011;12240;51.142;22.486;2022-12-24T12:00:50;29.20;;;11.80;;
24030;SDS011;12240;51.142;22.486;2022-12-24T12:06:42;27.55;;;12.25;;
24030;SDS011;12240;51.142;22.486;2022-12-24T12:09:19;32.80;;;14.25;;
24030;SDS011;12240;51.142;22.486;2022-12-24T12:12:37;28.80;;;12.77;;
24030;SDS011;12240;51.142;22.486;2022-12-24T12:14:58;30.38;;;13.50;;
24030;SDS011;12240;51.142;22.486;2022-12-24T12:17:47;30.88;;;14.02;;
24030;SDS011;12240;51.142;22.486;2022-12-24T12:20:30;32.35;;;14.20;;
24030;SDS011;12240;51.142;22.486;2022-12-24T12:28:53;46.05;;;20.65;;
24030;SDS011;12240;51.142;22.486;2022-12-24T12:31:36;44.30;;;19.80;;
24030;SDS011;12240;51.142;22.486;2022-12-24T12:34:19;47.72;;;22.75;;
24030;SDS011;12240;51.142;22.486;2022-12-24T12:36:57;43.55;;;20.42;;
24030;SDS011;12240;51.142;22.486;2022-12-24T12:39:40;46.65;;;21.25;;
24030;SDS011;12240;51.142;22.486;2022-12-24T12:42:22;45.70;;;20.58;;
24030;SDS011;12240;51.142;22.486;2022-12-24T12:45:26;46.42;;;20.50;;
24030;SDS011;12240;51.142;22.486;2022-12-24T12:51:56;51.78;;;23.60;;
24030;SDS011;12240;51.142;22.486;2022-12-24T12:57:18;45.30;;;21.33;;
24030;SDS011;12240;51.142;22.486;2022-12-24T12:59:54;45.53;;;21.05;;
24030;SDS011;12240;51.142;22.486;2022-12-24T13:11:53;37.92;;;17.13;;
24030;SDS011;12240;51.142;22.486;2022-12-24T13:14:57;40.40;;;17.23;;
24030;SDS011;12240;51.142;22.486;2022-12-24T13:20:31;27.15;;;12.15;;
24030;SDS011;12240;51.142;22.486;2022-12-24T13:23:10;21.00;;;9.88;;
24030;SDS011;12240;51.142;22.486;2022-12-24T13:25:48;23.85;;;11.52;;
24030;SDS011;12240;51.142;22.486;2022-12-24T13:30:52;27.08;;;12.65;;
24030;SDS011;12240;51.142;22.486;2022-12-24T13:33:47;29.10;;;14.07;;
24030;SDS011;12240;51.142;22.486;2022-12-24T13:36:21;30.60;;;13.73;;
24030;SDS011;12240;51.142;22.486;2022-12-24T13:38:56;30.67;;;14.68;;
24030;SDS011;12240;51.142;22.486;2022-12-24T13:46:59;40.85;;;16.70;;
24030;SDS011;12240;51.142;22.486;2022-12-24T13:49:44;44.77;;;19.33;;
24030;SDS011;12240;51.142;22.486;2022-12-24T13:52:23;44.05;;;18.17;;
24030;SDS011;12240;51.142;22.486;2022-12-24T13:55:14;37.67;;;15.65;;
24030;SDS011;12240;51.142;22.486;2022-12-24T13:57:45;33.25;;;15.15;;
24030;SDS011;12240;51.142;22.486;2022-12-24T14:00:39;38.38;;;16.33;;
24030;SDS011;12240;51.142;22.486;2022-12-24T14:03:35;44.15;;;18.20;;
24030;SDS011;12240;51.142;22.486;2022-12-24T14:06:19;52.05;;;20.40;;
24030;SDS011;12240;51.142;22.486;2022-12-24T14:08:57;52.50;;;21.25;;
24030;SDS011;12240;51.142;22.486;2022-12-24T14:14:32;54.75;;;21.73;;
24030;SDS011;12240;51.142;22.486;2022-12-24T14:19:54;54.25;;;21.92;;
24030;SDS011;12240;51.142;22.486;2022-12-24T14:22:29;50.47;;;20.90;;
24030;SDS011;12240;51.142;22.486;2022-12-24T14:31:03;44.67;;;18.55;;
24030;SDS011;12240;51.142;22.486;2022-12-24T14:33:33;48.17;;;19.23;;
24030;SDS011;12240;51.142;22.486;2022-12-24T14:36:02;39.20;;;16.80;;
24030;SDS011;12240;51.142;22.486;2022-12-24T14:38:31;42.65;;;17.88;;
24030;SDS011;12240;51.142;22.486;2022-12-24T14:41:10;44.92;;;17.92;;
24030;SDS011;12240;51.142;22.486;2022-12-24T14:46:46;64.15;;;23.85;;
24030;SDS011;12240;51.142;22.486;2022-12-24T14:55:35;76.75;;;27.45;;
24030;SDS011;12240;51.142;22.486;2022-12-24T14:58:16;70.25;;;25.95;;
24030;SDS011;12240;51.142;22.486;2022-12-24T15:06:32;88.32;;;30.30;;
24030;SDS011;12240;51.142;22.486;2022-12-24T15:09:25;73.00;;;28.45;;
24030;SDS011;12240;51.142;22.486;2022-12-24T15:11:57;68.82;;;27.17;;
24030;SDS011;12240;51.142;22.486;2022-12-24T15:14:29;64.70;;;25.65;;
24030;SDS011;12240;51.142;22.486;2022-12-24T15:17:09;70.72;;;27.30;;
24030;SDS011;12240;51.142;22.486;2022-12-24T15:19:40;76.00;;;28.30;;
24030;SDS011;12240;51.142;22.486;2022-12-24T15:22:21;81.50;;;30.48;;
24030;SDS011;12240;51.142;22.486;2022-12-24T15:24:56;82.50;;;30.70;;
24030;SDS011;12240;51.142;22.486;2022-12-24T15:27:26;74.70;;;28.83;;
24030;SDS011;12240;51.142;22.486;2022-12-24T15:30:03;75.28;;;29.52;;
24030;SDS011;12240;51.142;22.486;2022-12-24T15:32:40;72.20;;;27.08;;
24030;SDS011;12240;51.142;22.486;2022-12-24T15:41:04;66.95;;;26.95;;
24030;SDS011;12240;51.142;22.486;2022-12-24T15:43:43;65.05;;;25.88;;
24030;SDS011;12240;51.142;22.486;2022-12-24T15:46:23;69.38;;;25.77;;
24030;SDS011;12240;51.142;22.486;2022-12-24T15:48:54;61.20;;;25.10;;
24030;SDS011;12240;51.142;22.486;2022-12-24T15:51:30;65.22;;;26.15;;
24030;SDS011;12240;51.142;22.486;2022-12-24T15:54:09;52.90;;;22.27;;
24030;SDS011;12240;51.142;22.486;2022-12-24T15:56:42;54.65;;;23.17;;
24030;SDS011;12240;51.142;22.486;2022-12-24T16:07:58;67.95;;;27.00;;
24030;SDS011;12240;51.142;22.486;2022-12-24T16:10:44;59.35;;;23.95;;
24030;SDS011;12240;51.142;22.486;2022-12-24T16:13:22;57.03;;;24.48;;
24030;SDS011;12240;51.142;22.486;2022-12-24T16:16:04;53.40;;;23.17;;
24030;SDS011;12240;51.142;22.486;2022-12-24T16:18:56;59.53;;;24.35;;
24030;SDS011;12240;51.142;22.486;2022-12-24T16:21:28;61.00;;;25.77;;
24030;SDS011;12240;51.142;22.486;2022-12-24T16:24:03;63.92;;;26.27;;
24030;SDS011;12240;51.142;22.486;2022-12-24T16:26:51;75.38;;;30.27;;
24030;SDS011;12240;51.142;22.486;2022-12-24T16:29:21;74.82;;;30.75;;
24030;SDS011;12240;51.142;22.486;2022-12-24T16:31:51;73.68;;;29.95;;
24030;SDS011;12240;51.142;22.486;2022-12-24T16:34:25;73.35;;;30.50;;
24030;SDS011;12240;51.142;22.486;2022-12-24T16:36:57;74.88;;;30.77;;
24030;SDS011;12240;51.142;22.486;2022-12-24T16:39:29;66.40;;;28.27;;
24030;SDS011;12240;51.142;22.486;2022-12-24T16:42:01;66.53;;;27.45;;
24030;SDS011;12240;51.142;22.486;2022-12-24T16:44:51;64.07;;;26.23;;
24030;SDS011;12240;51.142;22.486;2022-12-24T16:47:21;60.53;;;26.90;;
24030;SDS011;12240;51.142;22.486;2022-12-24T16:50:03;62.22;;;25.88;;
24030;SDS011;12240;51.142;22.486;2022-12-24T16:52:34;56.20;;;24.90;;
24030;SDS011;12240;51.142;22.486;2022-12-24T16:55:03;58.90;;;25.30;;
24030;SDS011;12240;51.142;22.486;2022-12-24T16:57:32;51.78;;;23.38;;